createdAt,value
2023-05-05T00:00:37.926Z,43.41
2023-05-05T00:03:33.067Z,43.40
2023-05-05T00:06:28.376Z,43.43
2023-05-05T00:09:22.630Z,43.59
2023-05-05T00:12:16.773Z,43.54
2023-05-05T00:15:12.266Z,43.59
2023-05-05T00:18:06.846Z,43.65
2023-05-05T00:21:00.944Z,43.67
2023-05-05T00:23:55.331Z,43.66
2023-05-05T00:26:49.440Z,43.68
2023-05-05T00:29:43.424Z,43.56
2023-05-05T00:32:37.545Z,43.60
2023-05-05T00:35:31.910Z,43.60
2023-05-05T00:38:26.382Z,43.65
2023-05-05T00:41:20.460Z,43.72
2023-05-05T00:44:14.647Z,43.77
2023-05-05T00:47:08.834Z,43.82
2023-05-05T00:50:03.082Z,43.77
2023-05-05T00:52:59.935Z,43.75
2023-05-05T00:55:54.031Z,43.79
2023-05-05T00:58:49.230Z,43.79
2023-05-05T01:01:43.839Z,43.81
2023-05-05T01:04:37.853Z,43.84
2023-05-05T01:07:42.473Z,43.69
2023-05-05T01:10:46.649Z,43.76
2023-05-05T01:13:54.405Z,43.64
2023-05-05T01:17:00.144Z,43.62
2023-05-05T01:20:04.324Z,43.72
2023-05-05T01:23:01.257Z,43.70
2023-05-05T01:26:14.443Z,43.81
2023-05-05T01:29:34.683Z,43.67
2023-05-05T01:32:32.793Z,43.79
2023-05-05T01:35:32.317Z,43.77
2023-05-05T01:38:33.877Z,43.92
2023-05-05T01:41:33.146Z,43.86
2023-05-05T01:44:28.903Z,43.89
2023-05-05T01:47:25.143Z,43.73
2023-05-05T01:50:19.949Z,43.75
2023-05-05T01:53:14.808Z,43.80
2023-05-05T01:56:10.515Z,43.63
2023-05-05T01:59:06.697Z,43.71
2023-05-05T02:02:02.882Z,43.66
2023-05-05T02:04:58.330Z,43.70
2023-05-05T02:07:56.363Z,43.69
2023-05-05T02:10:50.851Z,43.74
2023-05-05T02:13:45.531Z,43.89
2023-05-05T02:16:41.372Z,43.90
2023-05-05T02:19:40.067Z,43.95
2023-05-05T02:22:34.014Z,43.88
2023-05-05T02:25:32.323Z,43.82
2023-05-05T02:28:49.300Z,43.79
2023-05-05T02:31:48.713Z,43.84
2023-05-05T02:34:44.329Z,43.83
2023-05-05T02:37:39.742Z,43.79
2023-05-05T02:40:36.457Z,43.65
2023-05-05T02:43:33.108Z,44.36
2023-05-05T02:46:27.168Z,43.56
2023-05-05T02:49:13.555Z,43.35
2023-05-05T02:52:07.618Z,43.37
2023-05-05T02:55:02.514Z,43.21
2023-05-05T02:58:06.623Z,43.27
2023-05-05T03:01:08.154Z,43.33
2023-05-05T03:04:10.271Z,43.35
2023-05-05T03:07:25.941Z,43.51
2023-05-05T03:10:24.141Z,43.49
2023-05-05T03:13:20.721Z,43.35
2023-05-05T03:16:18.156Z,43.35
2023-05-05T03:19:14.997Z,43.41
2023-05-05T03:22:09.011Z,43.31
2023-05-05T03:25:03.396Z,43.43
2023-05-05T03:27:57.705Z,43.40
2023-05-05T03:30:51.577Z,43.44
2023-05-05T03:33:45.781Z,43.43
2023-05-05T03:36:40.524Z,43.45
2023-05-05T03:39:34.301Z,43.54
2023-05-05T03:42:28.326Z,43.53
2023-05-05T03:45:22.672Z,43.58
2023-05-05T03:48:16.639Z,43.49
2023-05-05T03:51:10.780Z,43.53
2023-05-05T03:54:04.891Z,43.70
2023-05-05T03:56:59.834Z,43.61
2023-05-05T03:59:53.855Z,43.81
2023-05-05T04:02:47.689Z,43.76
2023-05-05T04:05:41.778Z,43.79
2023-05-05T04:08:36.099Z,43.64
2023-05-05T04:11:30.102Z,43.54
2023-05-05T04:14:24.068Z,43.40
2023-05-05T04:17:18.086Z,43.51
2023-05-05T04:20:14.156Z,43.96
2023-05-05T04:23:08.027Z,44.14
2023-05-05T04:26:01.885Z,44.63
2023-05-05T04:28:56.252Z,44.22
2023-05-05T04:31:50.581Z,44.39
2023-05-05T04:34:44.306Z,42.90
2023-05-05T04:37:37.998Z,43.81
2023-05-05T04:40:31.805Z,45.04
2023-05-05T04:43:25.620Z,46.11
2023-05-05T04:46:19.823Z,45.93
2023-05-05T04:49:13.971Z,45.56
2023-05-05T04:52:08.233Z,45.00
2023-05-05T04:55:02.360Z,44.74
2023-05-05T04:57:56.525Z,44.60
2023-05-05T05:00:50.520Z,44.45
2023-05-05T05:03:44.641Z,43.89
2023-05-05T05:06:38.377Z,43.63
2023-05-05T05:09:32.262Z,43.50
2023-05-05T05:12:26.211Z,43.17
2023-05-05T05:15:20.445Z,43.06
2023-05-05T05:18:14.317Z,43.02
2023-05-05T05:21:08.274Z,43.11
2023-05-05T05:24:02.404Z,43.22
2023-05-05T05:26:56.400Z,43.18
2023-05-05T05:29:50.305Z,43.25
2023-05-05T05:32:44.130Z,43.17
2023-05-05T05:35:37.949Z,43.33
2023-05-05T05:38:31.530Z,43.30
2023-05-05T05:41:25.373Z,42.97
2023-05-05T05:44:19.420Z,42.77
2023-05-05T05:47:13.529Z,42.91
2023-05-05T05:50:09.454Z,42.98
2023-05-05T05:53:03.990Z,42.97
2023-05-05T05:55:58.335Z,42.86
2023-05-05T05:58:52.515Z,42.54
2023-05-05T06:01:46.519Z,42.21
2023-05-05T06:04:40.842Z,42.21
2023-05-05T06:07:34.592Z,42.18
2023-05-05T06:10:29.007Z,41.91
2023-05-05T06:13:22.947Z,41.74
2023-05-05T06:16:17.179Z,41.65
2023-05-05T06:19:11.343Z,41.21
2023-05-05T06:22:05.166Z,41.60
2023-05-05T06:24:58.943Z,43.20
2023-05-05T06:27:53.333Z,43.09
2023-05-05T06:30:47.163Z,43.27
2023-05-05T06:33:41.050Z,43.23
2023-05-05T06:36:35.271Z,43.20
2023-05-05T06:39:29.089Z,43.29
2023-05-05T06:42:23.015Z,43.05
2023-05-05T06:45:17.230Z,42.51
2023-05-05T06:48:11.267Z,41.51
2023-05-05T06:51:05.387Z,40.73
2023-05-05T06:53:59.532Z,40.49
2023-05-05T06:56:53.196Z,40.37
2023-05-05T06:59:47.036Z,42.09
2023-05-05T07:02:40.918Z,42.24
2023-05-05T07:05:34.927Z,41.47
2023-05-05T07:08:29.288Z,41.20
2023-05-05T07:11:23.365Z,40.70
2023-05-05T07:14:14.340Z,41.23
2023-05-05T07:17:08.478Z,41.46
2023-05-05T07:20:03.029Z,40.94
2023-05-05T07:22:56.604Z,41.35
2023-05-05T07:25:50.684Z,40.62
2023-05-05T07:28:43.116Z,39.98
2023-05-05T07:31:37.010Z,40.10
2023-05-05T07:34:32.761Z,40.48
2023-05-05T07:37:26.769Z,39.38
2023-05-05T07:40:20.717Z,39.29
2023-05-05T07:43:14.539Z,39.46
2023-05-05T07:46:08.650Z,39.90
2023-05-05T07:49:02.530Z,39.81
2023-05-05T07:51:56.604Z,40.18
2023-05-05T07:54:50.524Z,40.18
2023-05-05T07:57:44.201Z,40.08
2023-05-05T08:00:37.833Z,41.00
2023-05-05T08:03:31.796Z,38.87
2023-05-05T08:06:25.562Z,38.77
2023-05-05T08:09:14.153Z,39.33
2023-05-05T08:12:08.374Z,40.18
2023-05-05T08:15:02.697Z,40.07
2023-05-05T08:17:56.876Z,39.97
2023-05-05T08:20:50.646Z,40.12
2023-05-05T08:23:44.991Z,42.39
2023-05-05T08:26:38.768Z,41.82
2023-05-05T08:29:32.567Z,41.04
2023-05-05T08:32:27.845Z,40.70
2023-05-05T08:35:24.196Z,40.54
2023-05-05T08:38:19.100Z,40.47
2023-05-05T08:41:18.291Z,40.57
2023-05-05T08:44:13.610Z,41.04
2023-05-05T08:47:09.416Z,42.35
2023-05-05T08:50:05.779Z,41.47
2023-05-05T08:53:11.509Z,42.49
2023-05-05T08:56:08.677Z,42.08
2023-05-05T08:59:03.582Z,40.57
2023-05-05T09:01:58.861Z,39.72
2023-05-05T09:04:53.066Z,39.57
2023-05-05T09:07:47.278Z,40.24
2023-05-05T09:10:43.052Z,40.85
2023-05-05T09:13:36.905Z,40.57
2023-05-05T09:16:30.735Z,39.65
2023-05-05T09:19:24.479Z,39.59
2023-05-05T09:22:18.489Z,40.04
2023-05-05T09:25:21.244Z,39.85
2023-05-05T09:28:17.405Z,39.24
2023-05-05T09:31:19.840Z,39.37
2023-05-05T09:34:19.622Z,39.80
2023-05-05T09:37:14.806Z,39.97
2023-05-05T09:40:10.744Z,39.82
2023-05-05T09:43:06.879Z,39.33
2023-05-05T09:46:10.313Z,40.56
2023-05-05T09:49:18.028Z,39.84
2023-05-05T09:52:18.098Z,38.91
2023-05-05T09:55:20.889Z,38.77
2023-05-05T09:58:24.846Z,39.11
2023-05-05T10:01:27.196Z,39.50
2023-05-05T10:04:31.901Z,40.47
2023-05-05T10:07:28.014Z,41.66
2023-05-05T10:10:36.412Z,40.50
2023-05-05T10:13:54.400Z,41.15
2023-05-05T10:16:52.577Z,42.96
2023-05-05T10:19:47.510Z,42.05
2023-05-05T10:22:44.817Z,40.97
2023-05-05T10:25:51.981Z,40.56
2023-05-05T10:28:53.040Z,40.58
2023-05-05T10:31:54.327Z,40.51
2023-05-05T10:34:55.241Z,41.96
2023-05-05T10:37:49.678Z,40.64
2023-05-05T10:40:46.526Z,39.97
2023-05-05T10:43:41.707Z,39.26
2023-05-05T10:46:35.750Z,38.26
2023-05-05T10:49:48.451Z,39.25
2023-05-05T10:52:49.146Z,40.26
2023-05-05T10:55:53.460Z,42.45
2023-05-05T10:58:59.133Z,43.70
2023-05-05T11:01:55.173Z,41.22
2023-05-05T11:05:17.849Z,40.53
2023-05-05T11:08:27.396Z,39.81
2023-05-05T11:11:40.097Z,40.66
2023-05-05T11:14:33.934Z,41.55
2023-05-05T11:17:50.232Z,42.84
2023-05-05T11:21:18.375Z,41.76
2023-05-05T11:24:31.366Z,39.72
2023-05-05T11:27:44.916Z,39.50
2023-05-05T11:30:59.619Z,39.31
2023-05-05T11:33:53.406Z,38.25
2023-05-05T11:36:47.150Z,37.33
2023-05-05T11:40:00.999Z,37.26
2023-05-05T11:43:19.694Z,38.40
2023-05-05T11:46:17.613Z,37.83
2023-05-05T11:49:11.420Z,39.22
2023-05-05T11:52:07.468Z,39.34
2023-05-05T11:55:06.613Z,39.31
2023-05-05T11:58:00.593Z,39.35
2023-05-05T12:00:54.231Z,39.70
2023-05-05T12:03:48.119Z,39.32
2023-05-05T12:06:42.447Z,40.22
2023-05-05T12:09:36.268Z,41.20
2023-05-05T12:12:42.217Z,40.62
2023-05-05T12:15:36.969Z,39.71
2023-05-05T12:18:30.700Z,39.88
2023-05-05T12:21:24.572Z,39.90
2023-05-05T12:24:18.870Z,39.71
2023-05-05T12:27:15.930Z,39.56
2023-05-05T12:30:19.541Z,39.17
2023-05-05T12:33:13.175Z,39.12
2023-05-05T12:36:08.332Z,38.85
2023-05-05T12:39:02.066Z,39.02
2023-05-05T12:42:05.027Z,38.97
2023-05-05T12:44:58.675Z,39.34
2023-05-05T12:47:52.390Z,39.31
2023-05-05T12:50:45.886Z,39.18
2023-05-05T12:53:39.484Z,39.62
2023-05-05T12:56:45.619Z,38.88
2023-05-05T12:59:39.315Z,37.84
2023-05-05T13:02:39.307Z,39.29
2023-05-05T13:05:37.185Z,39.19
2023-05-05T13:08:47.114Z,39.48
2023-05-05T13:11:41.657Z,39.57
2023-05-05T13:14:36.318Z,39.23
2023-05-05T13:17:30.057Z,39.20
2023-05-05T13:20:23.700Z,38.95
2023-05-05T13:23:17.337Z,38.71
2023-05-05T13:26:11.157Z,38.75
2023-05-05T13:29:05.006Z,39.04
2023-05-05T13:31:58.742Z,39.50
2023-05-05T13:34:52.502Z,39.46
2023-05-05T13:37:47.511Z,38.97
2023-05-05T13:40:41.190Z,39.27
2023-05-05T13:43:34.889Z,39.50
2023-05-05T13:46:28.590Z,39.50
2023-05-05T13:49:22.478Z,39.12
2023-05-05T13:52:16.218Z,38.79
2023-05-05T13:55:12.200Z,39.02
2023-05-05T13:58:06.423Z,38.84
2023-05-05T14:01:00.311Z,39.07
2023-05-05T14:03:56.932Z,39.56
2023-05-05T14:06:51.140Z,39.19
2023-05-05T14:09:44.736Z,38.87
2023-05-05T14:12:38.438Z,39.15
2023-05-05T14:15:32.167Z,38.62
2023-05-05T14:18:25.845Z,38.74
2023-05-05T14:21:19.511Z,38.57
2023-05-05T14:24:13.445Z,39.06
2023-05-05T14:27:07.255Z,38.96
2023-05-05T14:30:00.885Z,38.66
2023-05-05T14:32:54.496Z,38.47
2023-05-05T14:35:48.193Z,38.21
2023-05-05T14:38:42.862Z,38.51
2023-05-05T14:41:36.673Z,38.13
2023-05-05T14:44:30.390Z,38.32
2023-05-05T14:47:25.523Z,37.99
2023-05-05T14:50:19.370Z,37.74
2023-05-05T14:53:13.588Z,37.70
2023-05-05T14:56:08.322Z,37.93
2023-05-05T14:59:02.085Z,37.94
2023-05-05T15:01:56.455Z,38.28
2023-05-05T15:04:50.409Z,38.38
2023-05-05T15:07:44.363Z,38.12
2023-05-05T15:10:38.270Z,38.06
2023-05-05T15:13:32.187Z,38.57
2023-05-05T15:16:25.949Z,38.30
2023-05-05T15:19:14.696Z,38.11
2023-05-05T15:22:08.864Z,38.20
2023-05-05T15:25:02.942Z,38.35
2023-05-05T15:27:58.776Z,38.34
2023-05-05T15:30:52.593Z,38.26
2023-05-05T15:33:48.507Z,38.43
2023-05-05T15:36:42.258Z,38.03
2023-05-05T15:39:35.930Z,38.34
2023-05-05T15:42:29.601Z,39.46
2023-05-05T15:45:23.267Z,39.04
2023-05-05T15:48:16.846Z,38.60
2023-05-05T15:51:12.368Z,38.18
2023-05-05T15:54:07.010Z,37.96
2023-05-05T15:57:01.268Z,38.31
2023-05-05T15:59:56.804Z,37.79
2023-05-05T16:02:50.845Z,38.27
2023-05-05T16:05:44.645Z,38.42
2023-05-05T16:08:39.183Z,37.98
2023-05-05T16:11:33.536Z,38.01
2023-05-05T16:14:27.809Z,38.13
2023-05-05T16:17:22.800Z,38.37
2023-05-05T16:20:17.402Z,38.48
2023-05-05T16:23:11.303Z,38.43
2023-05-05T16:26:05.494Z,38.89
2023-05-05T16:28:59.198Z,38.29
2023-05-05T16:31:52.917Z,38.42
2023-05-05T16:34:46.770Z,38.60
2023-05-05T16:37:40.765Z,37.72
2023-05-05T16:40:36.833Z,38.15
2023-05-05T16:43:31.182Z,38.63
2023-05-05T16:46:25.058Z,38.24
2023-05-05T16:49:18.945Z,38.06
2023-05-05T16:52:12.657Z,38.27
2023-05-05T16:55:07.251Z,38.56
2023-05-05T16:58:01.765Z,38.39
2023-05-05T17:00:55.931Z,38.59
2023-05-05T17:03:49.796Z,38.55
2023-05-05T17:06:43.897Z,38.61
2023-05-05T17:09:38.005Z,38.47
2023-05-05T17:12:32.101Z,38.68
2023-05-05T17:15:26.207Z,38.67
2023-05-05T17:18:21.818Z,38.40
2023-05-05T17:21:15.800Z,38.27
2023-05-05T17:24:11.407Z,38.52
2023-05-05T17:27:05.446Z,38.24
2023-05-05T17:29:59.300Z,38.54
2023-05-05T17:32:53.070Z,38.29
2023-05-05T17:35:47.226Z,38.48
2023-05-05T17:38:41.416Z,38.64
2023-05-05T17:41:35.307Z,38.47
2023-05-05T17:44:29.271Z,38.66
2023-05-05T17:47:24.172Z,38.70
2023-05-05T17:50:18.243Z,38.58
2023-05-05T17:53:12.391Z,38.41
2023-05-05T17:56:08.749Z,38.49
2023-05-05T17:59:03.227Z,38.57
2023-05-05T18:01:56.986Z,38.64
2023-05-05T18:04:50.758Z,38.67
2023-05-05T18:07:44.875Z,38.53
2023-05-05T18:10:38.856Z,38.63
2023-05-05T18:13:32.739Z,38.64
2023-05-05T18:16:26.621Z,39.64
2023-05-05T18:19:18.096Z,39.04
2023-05-05T18:22:12.538Z,39.10
2023-05-05T18:25:08.276Z,38.93
2023-05-05T18:28:02.081Z,39.27
2023-05-05T18:30:56.193Z,39.25
2023-05-05T18:33:50.202Z,40.11
2023-05-05T18:36:44.150Z,39.91
2023-05-05T18:39:38.198Z,40.06
2023-05-05T18:42:31.988Z,40.19
2023-05-05T18:45:26.186Z,39.98
2023-05-05T18:48:20.379Z,39.96
2023-05-05T18:51:14.042Z,39.92
2023-05-05T18:54:08.803Z,39.95
2023-05-05T18:57:03.586Z,40.11
2023-05-05T18:59:57.413Z,40.19
2023-05-05T19:02:51.314Z,39.79
2023-05-05T19:05:45.304Z,39.67
2023-05-05T19:08:39.083Z,39.83
2023-05-05T19:11:32.934Z,39.64
2023-05-05T19:14:26.906Z,39.88
2023-05-05T19:17:20.841Z,39.93
2023-05-05T19:20:15.835Z,39.97
2023-05-05T19:23:09.872Z,39.79
2023-05-05T19:26:05.619Z,39.52
2023-05-05T19:29:00.273Z,39.54
2023-05-05T19:31:54.437Z,39.72
2023-05-05T19:34:48.184Z,39.63
2023-05-05T19:37:42.307Z,39.36
2023-05-05T19:40:36.360Z,39.33
2023-05-05T19:43:30.147Z,39.03
2023-05-05T19:46:24.063Z,39.14
2023-05-05T19:49:17.916Z,38.85
2023-05-05T19:52:11.867Z,39.16
2023-05-05T19:55:06.793Z,38.79
2023-05-05T19:58:00.854Z,38.80
2023-05-05T20:00:54.825Z,38.69
2023-05-05T20:03:49.505Z,38.78
2023-05-05T20:06:44.681Z,38.85
2023-05-05T20:09:39.489Z,38.85
2023-05-05T20:12:33.400Z,38.87
2023-05-05T20:15:27.386Z,38.85
2023-05-05T20:18:21.395Z,38.99
2023-05-05T20:21:16.598Z,39.02
2023-05-05T20:24:11.757Z,39.09
2023-05-05T20:27:06.341Z,39.15
2023-05-05T20:30:00.100Z,38.97
2023-05-05T20:32:54.349Z,38.73
2023-05-05T20:35:48.349Z,38.59
2023-05-05T20:38:42.563Z,38.67
2023-05-05T20:41:39.384Z,38.52
2023-05-05T20:44:14.768Z,38.56
2023-05-05T20:47:08.817Z,38.60
2023-05-05T20:50:02.777Z,38.80
2023-05-05T20:53:21.181Z,38.66
2023-05-05T20:56:16.483Z,38.16
2023-05-05T20:59:14.660Z,38.13
2023-05-05T21:02:09.081Z,38.08
2023-05-05T21:05:03.325Z,37.99
2023-05-05T21:07:59.987Z,37.75
2023-05-05T21:10:53.427Z,37.80
2023-05-05T21:13:47.712Z,37.59
2023-05-05T21:16:41.998Z,37.53
2023-05-05T21:19:35.947Z,37.36
2023-05-05T21:22:30.108Z,37.46
2023-05-05T21:25:25.513Z,37.35
2023-05-05T21:28:19.648Z,37.47
2023-05-05T21:31:21.646Z,37.32
2023-05-05T21:34:14.887Z,37.47
2023-05-05T21:37:08.958Z,37.42
2023-05-05T21:40:03.028Z,37.29
2023-05-05T21:42:57.330Z,37.37
2023-05-05T21:46:11.511Z,37.45
2023-05-05T21:49:28.071Z,37.42
2023-05-05T21:52:20.604Z,37.29
2023-05-05T21:55:14.479Z,37.39
2023-05-05T21:58:08.225Z,37.36
2023-05-05T22:01:02.670Z,37.02
2023-05-05T22:03:56.885Z,37.02
2023-05-05T22:06:51.057Z,37.02
2023-05-05T22:09:45.531Z,37.04
2023-05-05T22:12:39.323Z,37.08
2023-05-05T22:15:45.355Z,37.16
2023-05-05T22:18:41.154Z,37.22
2023-05-05T22:21:35.397Z,36.97
2023-05-05T22:24:29.219Z,37.15
2023-05-05T22:27:23.253Z,37.21
2023-05-05T22:30:18.317Z,36.99
2023-05-05T22:33:12.374Z,37.38
2023-05-05T22:36:06.587Z,37.77
2023-05-05T22:39:00.370Z,37.89
2023-05-05T22:41:54.359Z,38.00
2023-05-05T22:44:48.298Z,38.02
2023-05-05T22:47:42.138Z,38.02
2023-05-05T22:50:36.147Z,37.99
2023-05-05T22:53:29.779Z,38.19
2023-05-05T22:56:23.794Z,38.04
2023-05-05T22:59:17.539Z,38.04
2023-05-05T23:02:11.451Z,37.90
2023-05-05T23:05:05.575Z,37.92
2023-05-05T23:08:01.557Z,38.21
2023-05-05T23:10:57.371Z,38.10
2023-05-05T23:13:51.172Z,38.14
2023-05-05T23:16:45.470Z,38.17
2023-05-05T23:19:39.840Z,38.12
2023-05-05T23:22:33.756Z,38.29
2023-05-05T23:25:27.768Z,38.51
2023-05-05T23:28:22.634Z,38.44
2023-05-05T23:31:16.610Z,38.50
2023-05-05T23:34:11.160Z,38.45
2023-05-05T23:37:06.316Z,38.45
2023-05-05T23:40:00.353Z,38.50
2023-05-05T23:42:54.468Z,38.23
2023-05-05T23:45:48.370Z,38.51
2023-05-05T23:48:42.369Z,38.37
2023-05-05T23:51:36.400Z,38.46
2023-05-05T23:54:19.081Z,38.56
2023-05-05T23:57:13.198Z,38.46
